createdAt,value
2022-09-20T00:02:50.395Z,21.5
2022-09-20T00:08:28.337Z,21.4
2022-09-20T17:01:32.433Z,21.9
2022-09-20T17:06:58.344Z,21.9
2022-09-20T17:12:35.534Z,21.8
2022-09-20T17:18:15.640Z,21.8
2022-09-20T17:23:37.827Z,21.8
2022-09-20T17:29:15.302Z,21.8
2022-09-20T17:34:43.571Z,21.8
2022-09-20T17:40:10.778Z,21.8
2022-09-20T17:45:32.858Z,21.8
2022-09-20T17:51:12.590Z,21.8
2022-09-20T17:56:19.105Z,21.7
2022-09-20T18:02:01.889Z,21.8
2022-09-20T18:07:24.739Z,21.8
2022-09-20T18:12:36.289Z,21.8
2022-09-20T18:17:58.399Z,21.8
2022-09-20T18:23:21.149Z,21.7
2022-09-20T18:29:02.392Z,21.7
2022-09-20T18:34:40.348Z,21.6
2022-09-20T18:40:19.037Z,21.6
2022-09-20T18:45:41.631Z,21.7
2022-09-20T18:50:32.858Z,21.7
2022-09-20T18:56:11.744Z,21.6
2022-09-20T19:02:02.455Z,21.5
2022-09-20T19:07:39.959Z,21.3
2022-09-20T19:18:47.375Z,21
2022-09-20T19:24:10.067Z,20.8
2022-09-20T19:29:37.372Z,20.6
2022-09-20T19:34:59.136Z,20.6
2022-09-20T19:40:36.270Z,20.7
2022-09-20T19:46:14.994Z,20.8
2022-09-20T19:51:52.415Z,20.8
2022-09-20T19:57:00.927Z,20.9
2022-09-20T20:02:40.785Z,20.9
2022-09-20T20:08:05.525Z,20.9
2022-09-20T20:13:32.410Z,20.9
2022-09-20T20:18:24.314Z,20.9
2022-09-20T20:23:45.961Z,21
2022-09-20T20:29:09.395Z,21.1
2022-09-20T20:34:53.105Z,21.1
2022-09-20T20:40:30.748Z,21.1
2022-09-20T20:46:10.773Z,21.1
2022-09-20T20:51:50.373Z,21.1
